Colo, Iowa
Current Conditions -  °F | °C
As of 12:53 AM on Friday 31 Oct 2014 (Local Time) from KAMW Reporting Station
Broken Clouds Broken Clouds  
Wind Chill: 30°   Ceiling: 3500
Heat Index: 40°   Visibility: 10mi
Dew Point: 26°   Wind: 21mph
Humidity: 58%   Direction: 360°N
Pressure: 30.3"   Gusts: 38mph
Location:  42.02°N, 93.32°W
Report Text: KAMW 310553Z AUTO 36018G33KT 10SM BKN035 04/M03 A3030 RMK AO2 PK WND 35035/0507 SLP261 T00441033 10122 20044 401610011 51028
Loading
Personal Weather Stations






























Interactive Weather Map
Tropical Storm Tracking
New forecast layout! Learn more

10-Day Weather Forecast

Advertisements
Track Severe Weather on mobile